Upper Arlington, Ohio
Current Conditions -  °F | °C
As of 9:53 PM on Friday 19 Dec 2014 (Local Time) from KOSU Reporting Station
Overcast Overcast  
Wind Chill: 30°   Ceiling: 1900
Heat Index: 30°   Visibility: 10mi
Dew Point: 22°   Wind: 3mph
Humidity: 72%   Direction: 340°NNW
Pressure: 30.28"   Gusts: NA
Location:  40.03°N, 83.05°W
Report Text: KOSU 200253Z 34003KT 10SM OVC019 M01/M06 A3028 RMK AO2 SLP264 T10111056 55008
Loading
Personal Weather Stations






























Interactive Weather Map New forecast layout! Learn more

10-Day Weather Forecast

Advertisements
Track Severe Weather on mobile